Time;durP1;ratioP1;P1;durP2;ratioP2;P2;SDS_P1;SDS_P2;PMS_P1;PMS_P2;Temp;Humidity;BMP_temperature;BMP_pressure;BME280_temperature;BME280_humidity;BME280_pressure;Samples;Min_cycle;Max_cycle;Signal;HPM_P1;HPM_P2
2021/06/25 00:02:24;;;;;;;3.17;1.60;;;;;;;15.14;87.64;96508.44;5053305;28;20128;-72
2021/06/25 00:04:51;;;;;;;6.95;2.15;;;;;;;15.13;88.02;96512.31;5053666;28;20037;-72
2021/06/25 00:07:17;;;;;;;3.17;1.90;;;;;;;15.13;88.28;96501.31;5053581;28;20049;-72
2021/06/25 00:09:44;;;;;;;4.55;2.20;;;;;;;15.14;88.92;96502.94;5053919;28;20503;-72
2021/06/25 00:12:12;;;;;;;4.32;2.05;;;;;;;15.18;89.21;96503.03;5053645;28;20045;-72
2021/06/25 00:14:39;;;;;;;3.63;1.95;;;;;;;15.19;88.39;96499.97;5053811;28;20040;-72
2021/06/25 00:17:06;;;;;;;3.85;2.30;;;;;;;15.21;88.49;96503.16;5053544;28;20088;-72
2021/06/25 00:19:32;;;;;;;5.00;2.60;;;;;;;15.23;88.54;96494.59;5053529;28;20510;-72
2021/06/25 00:21:59;;;;;;;4.28;2.40;;;;;;;15.27;88.28;96496.28;5053777;28;20041;-72
2021/06/25 00:24:26;;;;;;;4.05;2.13;;;;;;;15.28;88.08;96488.88;5053337;28;20047;-71
2021/06/25 00:26:53;;;;;;;4.82;3.08;;;;;;;15.28;87.96;96492.41;5053755;28;20045;-72
2021/06/25 00:29:21;;;;;;;3.78;2.40;;;;;;;15.32;87.97;96498.81;5053080;28;20045;-72
2021/06/25 00:31:49;;;;;;;3.42;2.33;;;;;;;15.35;88.09;96494.59;5052940;28;20037;-72
2021/06/25 00:34:16;;;;;;;4.65;2.50;;;;;;;15.37;88.22;96498.56;5052945;28;20049;-72
2021/06/25 00:36:43;;;;;;;7.00;3.13;;;;;;;15.37;88.12;96495.03;5052977;28;20049;-72
2021/06/25 00:39:09;;;;;;;3.15;2.30;;;;;;;15.39;88.04;96492.72;5052969;28;20518;-72
2021/06/25 00:41:36;;;;;;;6.93;2.67;;;;;;;15.39;87.90;96493.53;5053278;28;20055;-72
2021/06/25 00:44:02;;;;;;;4.78;2.58;;;;;;;15.35;88.47;96498.13;5052843;28;20045;-72
2021/06/25 00:46:32;;;;;;;3.83;2.50;;;;;;;15.32;88.50;96504.28;5053452;28;20445;-72
2021/06/25 00:48:59;;;;;;;5.35;3.30;;;;;;;15.29;89.30;96494.00;5053217;28;20049;-72
2021/06/25 00:51:25;;;;;;;3.25;2.40;;;;;;;15.34;89.30;96499.25;5052878;28;20041;-72
2021/06/25 00:53:52;;;;;;;4.60;2.55;;;;;;;15.31;89.13;96510.94;5053308;28;20049;-72
2021/06/25 00:56:18;;;;;;;5.75;3.03;;;;;;;15.25;88.99;96506.03;5052715;28;20408;-72
2021/06/25 00:58:45;;;;;;;4.28;2.78;;;;;;;15.23;89.31;96506.34;5053248;28;20045;-72
2021/06/25 01:01:11;;;;;;;6.40;3.30;;;;;;;15.20;89.78;96507.06;5052547;28;20048;-72
2021/06/25 01:03:41;;;;;;;6.38;3.90;;;;;;;15.18;89.70;96509.31;5051510;28;20051;-72
2021/06/25 01:06:07;;;;;;;5.63;3.38;;;;;;;15.18;89.79;96509.31;5052391;28;20056;-72
2021/06/25 01:08:34;;;;;;;4.63;3.25;;;;;;;15.19;90.13;96516.44;5053262;28;20064;-71
2021/06/25 01:11:01;;;;;;;9.07;3.90;;;;;;;15.25;90.55;96514.25;5052703;28;20045;-72
2021/06/25 01:13:27;;;;;;;6.93;3.85;;;;;;;15.30;90.62;96508.53;5052312;28;20492;-72
2021/06/25 01:15:54;;;;;;;7.10;3.80;;;;;;;15.31;90.28;96505.44;5052561;28;20041;-72
2021/06/25 01:18:21;;;;;;;5.47;3.60;;;;;;;15.35;89.79;96500.06;5052337;28;20049;-72
2021/06/25 01:20:48;;;;;;;5.68;4.10;;;;;;;15.35;89.87;96511.84;5052697;28;20075;-72
2021/06/25 01:23:16;;;;;;;4.85;3.60;;;;;;;15.39;89.54;96499.00;5052220;28;20417;-72
2021/06/25 01:25:43;;;;;;;5.13;3.47;;;;;;;15.39;89.23;96504.50;5052378;28;20040;-72
2021/06/25 01:28:12;;;;;;;6.35;3.63;;;;;;;15.40;88.26;96506.13;5052197;28;20053;-72
2021/06/25 01:30:42;;;;;;;6.15;3.53;;;;;;;15.39;88.61;96504.50;5052490;28;20045;-73
2021/06/25 01:33:11;;;;;;;3.78;2.60;;;;;;;15.35;87.93;96509.09;5051753;28;20044;-71
2021/06/25 01:35:38;;;;;;;4.25;2.88;;;;;;;15.34;88.26;96512.97;5052129;28;20049;-71
2021/06/25 01:38:05;;;;;;;4.00;2.47;;;;;;;15.30;87.77;96512.09;5051961;28;20412;-72
2021/06/25 01:40:36;;;;;;;4.80;2.50;;;;;;;15.28;87.61;96513.56;5052085;28;20053;-72
2021/06/25 01:43:03;;;;;;;4.18;2.53;;;;;;;15.21;88.05;96508.66;5051844;28;20068;-71
2021/06/25 01:45:31;;;;;;;5.05;2.67;;;;;;;15.15;88.22;96510.03;5051382;28;20045;-71
2021/06/25 01:47:59;;;;;;;5.80;2.67;;;;;;;15.09;87.88;96509.47;5051917;28;20068;-71
2021/06/25 01:50:27;;;;;;;5.38;2.13;;;;;;;15.02;88.28;96505.69;5051761;28;20041;-71
2021/06/25 01:52:56;;;;;;;4.47;2.45;;;;;;;15.03;88.71;96501.78;5051984;28;20072;-71
2021/06/25 01:55:22;;;;;;;3.55;2.28;;;;;;;14.98;88.23;96504.75;5051504;28;20051;-71
2021/06/25 01:57:50;;;;;;;7.40;2.63;;;;;;;14.96;88.77;96496.88;5052240;28;20044;-71
2021/06/25 02:00:18;;;;;;;6.00;2.05;;;;;;;14.96;88.86;96501.56;5051461;28;20064;-71
2021/06/25 02:02:44;;;;;;;6.63;2.85;;;;;;;14.94;88.90;96501.13;5051184;28;20037;-71
2021/06/25 02:05:13;;;;;;;4.85;2.70;;;;;;;14.91;89.37;96499.06;5051280;28;20048;-71
2021/06/25 02:07:40;;;;;;;3.38;2.10;;;;;;;14.95;89.46;96497.22;5051740;28;20041;-71
2021/06/25 02:10:10;;;;;;;4.53;2.72;;;;;;;14.94;89.68;96501.91;5051551;28;20049;-71
2021/06/25 02:12:37;;;;;;;4.57;3.13;;;;;;;15.01;90.21;96498.59;5051876;28;20080;-71
2021/06/25 02:15:07;;;;;;;3.55;2.35;;;;;;;15.06;89.61;96496.44;5051165;28;20583;-72
2021/06/25 02:17:33;;;;;;;4.78;2.55;;;;;;;15.03;88.46;96486.13;5051534;28;20037;-72
2021/06/25 02:20:00;;;;;;;4.57;2.08;;;;;;;15.01;88.21;96493.13;5051821;28;20047;-71
2021/06/25 02:22:26;;;;;;;4.30;2.35;;;;;;;15.03;88.61;96490.81;5051159;28;20041;-71
2021/06/25 02:24:53;;;;;;;4.07;2.38;;;;;;;15.08;88.99;96496.88;5051602;28;20045;-71
2021/06/25 02:27:19;;;;;;;3.40;2.20;;;;;;;15.06;88.43;96490.94;5051007;28;20049;-71
2021/06/25 02:29:46;;;;;;;3.17;2.08;;;;;;;15.07;88.73;96491.75;5051400;28;20041;-71
2021/06/25 02:32:13;;;;;;;4.93;2.08;;;;;;;15.03;87.97;96493.56;5050977;28;20045;-72
2021/06/25 02:34:40;;;;;;;3.40;2.03;;;;;;;15.03;87.81;96493.56;5050770;28;20041;-71
2021/06/25 02:37:06;;;;;;;3.15;2.03;;;;;;;15.01;87.87;96493.13;5050805;28;20044;-71
2021/06/25 02:39:33;;;;;;;4.43;2.28;;;;;;;14.96;88.34;96485.13;5051309;28;20049;-72
2021/06/25 02:41:59;;;;;;;5.10;1.85;;;;;;;14.99;88.32;96498.16;5051023;28;20056;-72
2021/06/25 02:44:26;;;;;;;3.58;2.03;;;;;;;14.99;87.56;96495.41;5050792;28;20041;-71
2021/06/25 02:46:52;;;;;;;4.82;2.10;;;;;;;14.96;87.54;96496.88;5051239;28;20033;-71
2021/06/25 02:49:20;;;;;;;4.40;2.30;;;;;;;14.97;87.95;96497.69;5049541;28;20052;-71
2021/06/25 02:51:47;;;;;;;4.50;2.22;;;;;;;14.91;86.98;96493.56;5050847;28;20056;-72
2021/06/25 02:54:13;;;;;;;3.20;2.03;;;;;;;14.90;87.55;96492.78;5050655;28;20045;-71
2021/06/25 02:56:40;;;;;;;3.40;1.95;;;;;;;14.81;87.74;96494.81;5056968;28;20048;-71
2021/06/25 02:59:06;;;;;;;5.90;2.58;;;;;;;14.75;88.12;96499.72;5057364;28;20053;-71
2021/06/25 03:01:33;;;;;;;6.18;2.45;;;;;;;14.72;88.37;96500.44;5057561;28;20040;-71
2021/06/25 03:03:59;;;;;;;3.40;1.75;;;;;;;14.70;88.61;96494.47;5057227;28;20052;-72
2021/06/25 03:06:27;;;;;;;3.30;1.98;;;;;;;14.68;88.43;96494.03;5057225;28;20511;-72
2021/06/25 03:08:54;;;;;;;4.93;1.80;;;;;;;14.59;88.72;96493.31;5057623;28;20054;-71
2021/06/25 03:11:20;;;;;;;5.68;1.98;;;;;;;14.56;89.39;96492.06;5057269;28;20060;-74
2021/06/25 03:13:47;;;;;;;3.55;1.63;;;;;;;14.50;89.34;96495.34;5057764;28;20037;-72
2021/06/25 03:16:13;;;;;;;5.10;1.90;;;;;;;14.49;89.49;96483.59;5056965;28;20045;-71
2021/06/25 03:18:40;;;;;;;4.88;1.73;;;;;;;14.49;90.03;96488.28;5057625;28;20048;-71
2021/06/25 03:21:06;;;;;;;5.88;1.83;;;;;;;14.41;90.14;96481.72;5057201;28;20051;-72
2021/06/25 03:23:34;;;;;;;5.93;1.88;;;;;;;14.38;90.49;96482.41;5057647;28;20048;-72
2021/06/25 03:26:01;;;;;;;3.90;2.05;;;;;;;14.43;91.01;96489.59;5057707;28;20045;-74
2021/06/25 03:28:27;;;;;;;4.45;2.15;;;;;;;14.47;91.10;96485.06;5057014;28;20036;-71
2021/06/25 03:30:54;;;;;;;3.22;1.88;;;;;;;14.45;91.15;96485.38;5057614;28;20036;-71
2021/06/25 03:33:20;;;;;;;4.47;2.20;;;;;;;14.47;91.34;96487.78;5056745;28;20040;-71
2021/06/25 03:35:46;;;;;;;3.88;1.83;;;;;;;14.47;90.99;96485.06;5057100;28;20470;-71
2021/06/25 03:38:13;;;;;;;3.95;2.38;;;;;;;14.48;91.34;96481.19;5057007;28;20041;-71
2021/06/25 03:40:41;;;;;;;6.40;2.33;;;;;;;14.54;91.08;96488.06;5057336;28;20045;-71
2021/06/25 03:43:07;;;;;;;10.52;3.97;;;;;;;14.49;90.74;96482.78;5055327;28;20056;-72
2021/06/25 03:45:34;;;;;;;7.82;2.53;;;;;;;14.48;90.48;96482.00;5054861;28;20587;-71
2021/06/25 03:48:01;;;;;;;5.30;2.08;;;;;;;14.48;90.54;96486.69;5065721;28;20060;-71
2021/06/25 03:50:27;;;;;;;4.60;2.00;;;;;;;14.46;90.13;96494.38;5076536;28;20040;-71
2021/06/25 03:52:54;;;;;;;10.68;3.05;;;;;;;14.43;90.21;96489.59;5076897;28;20127;-71
2021/06/25 03:55:21;;;;;;;4.15;1.90;;;;;;;14.52;90.18;96493.09;5076735;28;20052;-71
2021/06/25 03:57:49;;;;;;;2.80;1.75;;;;;;;14.59;89.21;96493.31;5077290;28;20049;-71
2021/06/25 04:00:17;;;;;;;3.88;2.15;;;;;;;14.64;88.95;96493.09;5076550;28;20411;-71
2021/06/25 04:02:44;;;;;;;5.50;2.63;;;;;;;14.72;88.69;96497.69;5076996;28;20135;-71
2021/06/25 04:05:12;;;;;;;4.32;2.13;;;;;;;14.78;88.53;96490.03;5076671;28;20059;-71
2021/06/25 04:07:39;;;;;;;3.15;1.95;;;;;;;14.84;87.90;96491.41;5074343;28;20052;-71
2021/06/25 04:10:08;;;;;;;4.80;2.45;;;;;;;14.87;87.44;96488.75;5073489;28;20130;-71
2021/06/25 04:12:34;;;;;;;2.88;1.90;;;;;;;14.94;86.63;96501.13;5073923;28;20044;-71
2021/06/25 04:15:05;;;;;;;3.92;2.10;;;;;;;14.94;85.81;96498.38;5073607;28;20388;-71
2021/06/25 04:17:31;;;;;;;4.55;1.65;;;;;;;14.95;85.52;96495.28;5073775;28;20052;-71
2021/06/25 04:19:57;;;;;;;3.47;1.77;;;;;;;14.98;85.81;96491.03;5073707;28;20037;-71
2021/06/25 04:22:24;;;;;;;5.20;2.22;;;;;;;14.96;85.64;96496.09;5073304;28;20048;-71
2021/06/25 04:24:51;;;;;;;3.20;1.63;;;;;;;15.00;85.91;96491.53;5073621;28;20483;-71
2021/06/25 04:27:18;;;;;;;4.57;2.00;;;;;;;15.01;85.63;96495.84;5072908;28;20043;-71
2021/06/25 04:29:46;;;;;;;5.78;2.10;;;;;;;15.03;85.09;96488.06;5073318;28;20495;-71
2021/06/25 04:32:16;;;;;;;3.00;1.90;;;;;;;15.04;85.10;96486.97;5073048;28;20044;-71
2021/06/25 04:34:42;;;;;;;3.80;1.83;;;;;;;15.09;85.27;96497.69;5072794;28;20053;-71
2021/06/25 04:37:09;;;;;;;3.25;1.73;;;;;;;15.08;84.52;96491.38;5072481;28;20048;-71
2021/06/25 04:39:35;;;;;;;6.00;1.98;;;;;;;15.11;84.84;96496.19;5073534;28;20036;-73
2021/06/25 04:42:02;;;;;;;2.95;1.75;;;;;;;15.13;84.71;96495.84;5072532;28;20051;-73
2021/06/25 04:44:28;;;;;;;4.65;1.92;;;;;;;15.10;84.89;96497.34;5073139;28;20051;-73
2021/06/25 04:46:55;;;;;;;5.30;2.25;;;;;;;15.07;84.68;96499.97;5072662;28;20032;-74
2021/06/25 04:49:22;;;;;;;3.95;1.98;;;;;;;15.10;85.29;96502.03;5072735;28;20056;-73
2021/06/25 04:51:49;;;;;;;3.97;2.00;;;;;;;15.11;84.87;96492.66;5072988;28;20049;-71
2021/06/25 04:54:15;;;;;;;3.33;1.77;;;;;;;15.14;84.16;96502.94;5072593;28;20050;-73
2021/06/25 04:56:42;;;;;;;3.78;2.00;;;;;;;15.11;84.18;96495.41;5072856;28;20127;-73
2021/06/25 04:59:08;;;;;;;4.57;2.17;;;;;;;15.11;84.74;96498.16;5072223;28;20048;-73
2021/06/25 05:01:35;;;;;;;4.47;2.15;;;;;;;15.13;85.08;96504.88;5072878;28;20500;-73
2021/06/25 05:04:01;;;;;;;3.42;1.90;;;;;;;15.17;85.10;96496.75;5072097;28;20067;-74
2021/06/25 05:06:29;;;;;;;2.80;1.80;;;;;;;15.19;84.53;96502.72;5072594;28;20040;-73
2021/06/25 05:08:56;;;;;;;4.32;1.80;;;;;;;15.21;84.75;96500.44;5072627;28;20048;-73
2021/06/25 05:11:22;;;;;;;2.95;1.73;;;;;;;15.23;84.52;96495.38;5072055;28;20411;-74
2021/06/25 05:13:49;;;;;;;3.55;2.05;;;;;;;15.25;84.59;96500.53;5072279;28;20041;-73
2021/06/25 05:16:15;;;;;;;3.97;2.25;;;;;;;15.26;84.24;96494.69;5072023;28;20389;-73
2021/06/25 05:18:42;;;;;;;4.28;2.10;;;;;;;15.28;83.85;96492.41;5071314;28;20051;-73
2021/06/25 05:21:08;;;;;;;3.97;2.25;;;;;;;15.33;84.18;96494.13;5071879;28;20045;-76
2021/06/25 05:23:36;;;;;;;4.72;2.22;;;;;;;15.38;84.05;96493.88;5072001;28;20039;-75
2021/06/25 05:26:03;;;;;;;4.57;2.80;;;;;;;15.42;83.97;96496.75;5069573;28;20059;-75
2021/06/25 05:28:29;;;;;;;4.57;2.60;;;;;;;15.48;83.92;96498.09;5069578;28;20109;-75
2021/06/25 05:30:56;;;;;;;5.88;2.90;;;;;;;15.45;82.18;96491.34;5068824;28;20036;-75
2021/06/25 05:33:23;;;;;;;5.20;2.10;;;;;;;15.45;82.38;96493.28;5068298;28;20044;-74
2021/06/25 05:35:49;;;;;;;7.30;3.97;;;;;;;15.45;82.75;96496.03;5071092;28;20631;-75
2021/06/25 05:38:17;;;;;;;5.75;3.05;;;;;;;15.49;82.93;96488.72;5070297;28;20048;-75
2021/06/25 05:40:45;;;;;;;7.70;2.88;;;;;;;15.53;82.30;96492.38;5071267;28;20494;-75
2021/06/25 05:43:12;;;;;;;5.03;2.10;;;;;;;15.56;83.29;96497.19;5071778;28;20040;-75
2021/06/25 05:45:39;;;;;;;4.40;2.28;;;;;;;15.62;82.93;96490.31;5072090;28;20406;-75
2021/06/25 05:48:07;;;;;;;5.20;2.28;;;;;;;15.64;82.19;96494.31;5071599;28;20064;-75
2021/06/25 05:50:34;;;;;;;4.47;2.30;;;;;;;15.72;82.38;96489.84;5071913;28;20082;-75
2021/06/25 05:53:00;;;;;;;5.15;2.47;;;;;;;15.72;82.50;96487.09;5071654;28;20052;-76
2021/06/25 05:55:27;;;;;;;6.60;2.67;;;;;;;15.78;82.56;96493.94;5071239;28;20479;-75
2021/06/25 05:57:55;;;;;;;9.80;3.00;;;;;;;15.82;83.08;96489.34;5071176;28;20533;-75
2021/06/25 06:00:21;;;;;;;5.60;2.78;;;;;;;15.88;82.54;96487.16;5070877;28;20055;-76
2021/06/25 06:02:48;;;;;;;6.80;3.00;;;;;;;15.89;80.99;96492.31;5070865;28;20536;-76
2021/06/25 06:05:15;;;;;;;4.45;1.95;;;;;;;15.96;80.80;96499.13;5071327;28;20048;-75
2021/06/25 06:07:42;;;;;;;4.65;2.50;;;;;;;15.97;81.23;96493.28;5071510;28;20406;-75
2021/06/25 06:10:10;;;;;;;6.22;2.40;;;;;;;16.00;79.77;96491.81;5070926;28;20072;-75
2021/06/25 06:12:37;;;;;;;4.10;2.17;;;;;;;15.99;79.25;96492.97;5071411;28;20048;-75
2021/06/25 06:15:07;;;;;;;12.15;2.40;;;;;;;16.03;80.68;96493.88;5070974;28;20048;-75
2021/06/25 06:17:37;;;;;;;5.60;2.30;;;;;;;16.06;80.17;96496.69;5071043;28;20037;-75
2021/06/25 06:20:05;;;;;;;5.72;2.20;;;;;;;16.08;80.69;96502.66;5071197;28;20041;-75
2021/06/25 06:33:34;;;;;;;4.45;2.15;;;;;;;16.54;79.74;96500.34;5057102;28;20051;-74
2021/06/25 06:36:01;;;;;;;4.47;2.40;;;;;;;16.60;78.36;96500.88;5071260;28;20044;-75
2021/06/25 06:38:29;;;;;;;4.82;2.33;;;;;;;16.59;77.97;96502.03;5070578;28;20056;-73
2021/06/25 06:40:55;;;;;;;4.43;2.13;;;;;;;16.57;76.87;96499.66;5071377;28;20495;-73
2021/06/25 06:43:22;;;;;;;6.00;2.38;;;;;;;16.60;77.56;96500.88;5070336;28;20064;-73
2021/06/25 06:45:50;;;;;;;4.00;2.20;;;;;;;16.64;75.96;96501.78;5069284;28;20701;-73
2021/06/25 06:48:16;;;;;;;6.43;2.67;;;;;;;16.62;76.68;96498.59;5069909;28;20617;-73
2021/06/25 06:50:42;;;;;;;3.15;2.05;;;;;;;16.69;78.41;96498.75;5070535;28;20055;-74
2021/06/25 06:53:09;;;;;;;4.47;2.10;;;;;;;16.78;76.74;96496.66;5070347;28;20048;-74
2021/06/25 06:55:42;;;;;;;4.20;2.30;;;;;;;16.83;77.70;96492.88;5070796;28;20056;-75
2021/06/25 06:58:09;;;;;;;4.68;2.10;;;;;;;16.89;77.65;96500.47;5070365;28;20051;-75
2021/06/25 07:00:36;;;;;;;6.57;3.10;;;;;;;16.89;78.09;96497.72;5070158;28;20047;-73
2021/06/25 07:03:04;;;;;;;4.43;2.40;;;;;;;16.98;78.69;96502.28;5069646;28;20067;-75
2021/06/25 07:05:30;;;;;;;6.05;2.63;;;;;;;17.01;75.35;96504.28;5070445;28;20040;-74
2021/06/25 07:07:57;;;;;;;7.60;2.50;;;;;;;17.03;76.29;96508.31;5070517;28;20044;-75
2021/06/25 07:10:23;;;;;;;4.45;2.40;;;;;;;17.07;76.52;96509.19;5069804;28;20048;-73
2021/06/25 07:12:50;;;;;;;5.03;2.40;;;;;;;17.11;74.95;96504.53;5070533;28;20058;-74
2021/06/25 07:15:16;;;;;;;4.43;2.70;;;;;;;17.11;75.11;96509.25;5070090;28;20048;-73
2021/06/25 07:17:43;;;;;;;5.13;2.78;;;;;;;17.13;75.11;96506.97;5070476;28;20074;-74
2021/06/25 07:20:12;;;;;;;6.00;2.67;;;;;;;17.14;74.21;96508.56;5069850;28;20051;-73
2021/06/25 07:22:38;;;;;;;4.15;2.53;;;;;;;17.18;74.31;96503.94;5070896;28;20070;-73
2021/06/25 07:25:06;;;;;;;5.65;2.70;;;;;;;17.21;75.91;96514.22;5069840;28;20131;-73
2021/06/25 07:27:32;;;;;;;5.55;2.55;;;;;;;17.28;75.23;96508.91;5070751;28;20052;-73
2021/06/25 07:29:59;;;;;;;5.72;2.75;;;;;;;17.35;75.57;96509.06;5070238;28;20055;-73
2021/06/25 07:32:27;;;;;;;5.50;2.28;;;;;;;17.41;75.18;96513.13;5070062;28;20044;-74
2021/06/25 07:34:54;;;;;;;8.25;3.58;;;;;;;17.42;75.20;96509.22;5069932;28;20037;-73
2021/06/25 07:37:22;;;;;;;4.90;2.75;;;;;;;17.54;74.56;96505.56;5069179;28;20047;-76
2021/06/25 07:39:48;;;;;;;6.32;3.35;;;;;;;17.62;76.34;96507.31;5068853;28;20045;-75
2021/06/25 07:42:15;;;;;;;3.50;2.13;;;;;;;17.76;75.50;96506.84;5070853;28;20056;-75
2021/06/25 07:44:41;;;;;;;3.95;2.47;;;;;;;17.77;74.37;96491.91;5073764;28;20041;-76
2021/06/25 07:47:08;;;;;;;4.57;2.45;;;;;;;17.82;74.46;96494.38;5073333;28;20048;-76
2021/06/25 07:49:35;;;;;;;4.63;2.20;;;;;;;17.90;75.04;96501.63;5073583;28;20055;-74
2021/06/25 07:52:02;;;;;;;7.72;3.33;;;;;;;18.11;74.88;96497.72;5073545;28;20048;-74
2021/06/25 07:54:30;;;;;;;3.70;2.10;;;;;;;18.26;71.84;96496.84;5073630;28;20044;-74
2021/06/25 07:56:56;;;;;;;4.65;2.65;;;;;;;18.38;73.33;96495.91;5073557;28;20403;-74
2021/06/25 07:59:23;;;;;;;6.72;2.88;;;;;;;18.39;70.90;96490.00;5072691;28;20044;-75
2021/06/25 08:01:49;;;;;;;4.03;2.65;;;;;;;18.30;70.41;96492.19;5073670;28;20067;-75
2021/06/25 08:04:15;;;;;;;4.63;2.25;;;;;;;18.24;73.06;96488.16;5085803;28;20052;-74
2021/06/25 08:06:42;;;;;;;5.97;2.70;;;;;;;18.32;73.67;96481.59;5094163;28;20044;-74
2021/06/25 08:09:08;;;;;;;4.50;2.20;;;;;;;18.37;70.05;96484.06;5085428;28;20044;-76
2021/06/25 08:11:37;;;;;;;4.97;2.78;;;;;;;18.41;71.07;96481.38;5072635;28;20487;-75
2021/06/25 08:14:04;;;;;;;7.10;2.85;;;;;;;18.45;70.33;96480.28;5071827;28;20048;-74
2021/06/25 08:16:30;;;;;;;4.00;2.58;;;;;;;18.48;69.38;96487.84;5072533;28;20044;-75
2021/06/25 08:19:00;;;;;;;6.40;3.08;;;;;;;18.48;69.92;96485.06;5072990;28;20047;-75
2021/06/25 08:21:29;;;;;;;5.50;2.40;;;;;;;19.29;70.95;96484.06;5068735;28;20115;-76
2021/06/25 08:23:57;;;;;;;3.50;2.35;;;;;;;20.50;66.97;96471.84;5073333;28;20040;-75
2021/06/25 08:26:24;;;;;;;3.08;1.83;;;;;;;21.24;60.24;96475.66;5072915;28;20052;-75
2021/06/25 08:28:52;;;;;;;4.50;2.22;;;;;;;21.27;59.02;96467.38;5073079;28;20055;-76
2021/06/25 08:31:19;;;;;;;5.45;2.15;;;;;;;20.81;59.94;96475.31;5072627;28;20068;-75
2021/06/25 08:33:45;;;;;;;3.67;2.45;;;;;;;20.31;61.58;96472.03;5072519;28;20049;-76
2021/06/25 08:36:12;;;;;;;3.95;1.92;;;;;;;20.01;64.60;96472.88;5072575;28;20766;-75
2021/06/25 08:38:39;;;;;;;5.53;3.42;;;;;;;19.78;63.68;96472.16;5072975;28;20049;-75
2021/06/25 08:41:05;;;;;;;4.15;2.75;;;;;;;19.61;63.18;96469.97;5072327;28;20047;-75
2021/06/25 08:43:33;;;;;;;4.18;2.58;;;;;;;19.49;64.83;96474.50;5072679;28;20051;-75
2021/06/25 08:46:01;;;;;;;4.40;2.33;;;;;;;19.37;65.30;96466.47;5073139;28;20048;-75
2021/06/25 08:48:28;;;;;;;4.72;2.60;;;;;;;19.24;67.27;96468.63;5064241;28;20040;-78
2021/06/25 08:50:56;;;;;;;5.18;2.88;;;;;;;19.09;65.26;96468.78;5072796;28;20076;-74
2021/06/25 08:53:23;;;;;;;3.88;2.65;;;;;;;18.94;65.40;96465.78;5071946;28;20048;-76
2021/06/25 08:55:50;;;;;;;3.00;2.10;;;;;;;18.82;66.65;96474.25;5072842;28;20040;-75
2021/06/25 08:58:18;;;;;;;5.00;2.72;;;;;;;18.70;67.47;96478.00;5071434;28;20071;-75
2021/06/25 09:00:45;;;;;;;5.35;3.22;;;;;;;18.65;68.64;96474.72;5038271;28;20053;-76
2021/06/25 09:03:20;;;;;;;3.92;2.67;;;;;;;18.62;68.69;96486.47;5037867;28;20052;-77
2021/06/25 09:05:46;;;;;;;5.40;3.33;;;;;;;18.60;67.70;96477.78;5072647;28;20041;-77
2021/06/25 09:08:26;;;;;;;7.50;3.50;;;;;;;18.48;68.83;96479.56;5071812;28;20052;-74
2021/06/25 09:10:56;;;;;;;6.28;3.10;;;;;;;18.42;68.61;96492.03;5072439;28;20060;-75
2021/06/25 09:13:31;;;;;;;4.70;3.05;;;;;;;18.49;69.50;96497.69;5071816;28;20048;-75
2021/06/25 09:15:58;;;;;;;4.93;2.65;;;;;;;18.71;67.36;96496.13;5072592;28;20101;-74
2021/06/25 09:18:26;;;;;;;4.68;2.50;;;;;;;18.89;65.84;96485.41;5071507;28;20424;-74
2021/06/25 09:20:53;;;;;;;4.13;2.22;;;;;;;19.37;68.73;96488.53;5072346;28;20048;-75
2021/06/25 09:23:25;;;;;;;6.03;2.05;;;;;;;19.47;65.50;96481.56;5071560;28;20045;-76
2021/06/25 09:25:54;;;;;;;5.43;2.58;;;;;;;19.67;67.15;96483.06;5072414;28;20040;-75
2021/06/25 09:28:25;;;;;;;4.63;2.47;;;;;;;19.91;63.54;96483.78;5070073;28;22304;-76
2021/06/25 09:30:51;;;;;;;3.67;2.47;;;;;;;19.89;62.81;96484.16;5052100;28;20048;-75
2021/06/25 09:33:18;;;;;;;4.00;2.25;;;;;;;19.84;62.08;96483.69;5037748;28;20049;-75
2021/06/25 09:35:51;;;;;;;3.70;2.13;;;;;;;19.72;63.69;96479.19;5052039;28;20037;-74
2021/06/25 09:38:30;;;;;;;;;;;;;;;19.77;64.78;96485.19;5051851;28;20056;-75
2021/06/25 09:40:56;;;;;;;4.07;2.58;;;;;;;20.00;65.13;96485.09;5051588;28;19921;-76
2021/06/25 09:43:32;;;;;;;3.22;2.05;;;;;;;20.38;65.28;96480.38;5051291;28;20067;-74
2021/06/25 09:46:02;;;;;;;3.22;2.30;;;;;;;20.49;61.59;96484.09;5051699;28;20045;-74
2021/06/25 09:48:49;;;;;;;6.47;2.60;;;;;;;20.63;66.15;96482.66;5051400;28;20403;-75
2021/06/25 09:51:17;;;;;;;4.38;2.10;;;;;;;20.77;64.14;96480.00;5051103;28;20051;-76
2021/06/25 09:54:02;;;;;;;4.93;2.17;;;;;;;20.91;61.07;96474.59;5051539;28;20059;-77
2021/06/25 09:56:29;;;;;;;3.10;1.88;;;;;;;21.06;62.28;96481.06;5051237;28;20403;-76
2021/06/25 09:59:22;;;;;;;4.88;2.95;;;;;;;21.03;58.07;96477.06;5051472;28;20048;-74
2021/06/25 10:01:48;;;;;;;5.18;2.45;;;;;;;21.18;61.90;96472.44;5050149;28;20048;-74
2021/06/25 10:04:14;;;;;;;3.63;2.20;;;;;;;21.39;59.00;96468.28;5063021;28;20495;-74
2021/06/25 10:06:42;;;;;;;3.33;2.25;;;;;;;21.36;58.72;96456.00;5070711;28;20045;-76
2021/06/25 10:09:09;;;;;;;4.55;2.15;;;;;;;21.29;59.07;96467.00;5070822;28;20056;-74
2021/06/25 10:11:35;;;;;;;4.60;1.88;;;;;;;21.16;58.03;96469.28;5071006;28;20071;-73
2021/06/25 10:14:04;;;;;;;4.00;2.60;;;;;;;21.06;61.39;96459.72;5070982;28;20049;-73
2021/06/25 10:16:31;;;;;;;3.25;2.17;;;;;;;21.08;58.60;96462.09;5070999;28;20102;-74
2021/06/25 10:18:59;;;;;;;3.53;2.45;;;;;;;21.01;60.05;96453.72;5071180;28;20116;-74
2021/06/25 10:21:27;;;;;;;3.25;2.30;;;;;;;20.89;58.96;96459.56;5070721;28;20036;-74
2021/06/25 10:23:57;;;;;;;6.07;3.15;;;;;;;20.66;60.56;96456.97;5071377;28;20050;-73
2021/06/25 10:26:25;;;;;;;5.00;2.78;;;;;;;20.44;62.02;96458.72;5070652;28;20044;-74
2021/06/25 10:28:53;;;;;;;6.28;2.90;;;;;;;20.32;61.60;96459.78;5065837;28;20044;-74
2021/06/25 10:31:22;;;;;;;4.07;2.30;;;;;;;20.13;60.91;96458.00;5050462;28;20049;-73
2021/06/25 10:33:49;;;;;;;5.75;2.97;;;;;;;19.93;61.07;96459.31;5059623;28;20036;-73
2021/06/25 10:36:19;;;;;;;3.63;2.20;;;;;;;19.83;63.31;96455.25;5070750;28;20048;-73
2021/06/25 10:38:46;;;;;;;4.18;2.67;;;;;;;19.81;62.22;96457.59;5070749;28;20036;-73
2021/06/25 10:41:19;;;;;;;5.78;2.47;;;;;;;19.69;62.21;96455.09;5070411;28;20057;-75
2021/06/25 10:43:49;;;;;;;4.85;2.80;;;;;;;19.59;62.07;96447.41;5070838;28;20127;-76
2021/06/25 10:46:36;;;;;;;2.90;2.03;;;;;;;19.56;62.70;96446.19;5070543;28;20075;-76
2021/06/25 10:49:09;;;;;;;4.53;2.00;;;;;;;19.54;63.30;96443.81;5070137;28;20505;-74
2021/06/25 10:51:36;;;;;;;;;;;;;;;19.60;63.52;96440.75;5071232;28;20052;-75
2021/06/25 10:54:09;;;;;;;3.33;1.83;;;;;;;19.61;63.71;96442.34;5070152;28;19921;-74
2021/06/25 10:56:37;;;;;;;5.13;2.60;;;;;;;19.69;65.24;96441.28;5070677;28;20036;-73
2021/06/25 10:59:23;;;;;;;4.60;2.65;;;;;;;19.79;65.17;96432.31;5063261;28;20646;-73
2021/06/25 11:01:52;;;;;;;3.95;2.63;;;;;;;19.85;60.76;96427.25;5050853;28;20045;-73
2021/06/25 11:04:40;;;;;;;4.53;2.53;;;;;;;19.90;63.07;96433.25;5049921;28;20045;-74
2021/06/25 11:07:09;;;;;;;5.20;2.55;;;;;;;20.07;62.86;96435.41;5050475;28;20052;-73
2021/06/25 11:09:55;;;;;;;6.55;3.05;;;;;;;20.42;65.30;96431.44;5050795;28;20166;-74
2021/06/25 11:12:25;;;;;;;4.50;2.60;;;;;;;20.65;63.53;96442.34;5049725;28;20118;-75
2021/06/25 11:14:55;;;;;;;5.70;2.03;;;;;;;20.93;64.84;96436.25;5050756;28;20045;-74
2021/06/25 11:17:47;;;;;;;3.88;2.20;;;;;;;21.18;61.87;96428.16;5052904;28;20044;-76
2021/06/25 11:20:19;;;;;;;2.63;1.40;;;;;;;21.35;58.45;96437.78;5054433;28;20056;-75
2021/06/25 11:22:53;;;;;;;3.33;1.70;;;;;;;21.32;57.70;96436.59;5054229;28;20037;-76
2021/06/25 11:25:35;;;;;;;5.00;2.40;;;;;;;21.16;54.90;96436.06;5054056;28;20044;-75
2021/06/25 11:28:18;;;;;;;4.22;1.85;;;;;;;21.03;58.59;96432.78;5053487;28;20049;-75
2021/06/25 11:31:19;;;;;;;4.72;2.55;;;;;;;21.03;59.92;96427.25;5034540;28;20045;-76
2021/06/25 11:33:57;;;;;;;3.92;1.90;;;;;;;21.09;57.48;96434.03;5062843;28;20047;-75
2021/06/25 11:36:32;;;;;;;3.00;1.73;;;;;;;21.02;58.50;96431.19;5063316;28;20048;-74
2021/06/25 11:39:02;;;;;;;5.43;2.10;;;;;;;20.92;59.04;96431.13;5072979;28;20051;-75
2021/06/25 11:41:33;;;;;;;3.28;2.13;;;;;;;20.81;59.46;96428.25;5073257;28;20052;-75
2021/06/25 11:44:04;;;;;;;4.32;2.97;;;;;;;20.70;60.05;96427.38;5074069;28;20587;-75
2021/06/25 11:46:30;;;;;;;8.02;2.25;;;;;;;20.67;60.40;96430.91;5065803;28;20056;-75
2021/06/25 11:49:01;;;;;;;5.60;2.10;;;;;;;20.67;60.21;96422.59;5056110;28;20046;-74
2021/06/25 11:51:35;;;;;;;3.65;1.92;;;;;;;20.67;57.86;96430.91;5073420;28;20045;-74